Time;durP1;ratioP1;P1;durP2;ratioP2;P2;SDS_P1;SDS_P2;PMS_P1;PMS_P2;Temp;Humidity;BMP_temperature;BMP_pressure;BME280_temperature;BME280_humidity;BME280_pressure;Samples;Min_cycle;Max_cycle;Signal;HPM_P1;HPM_P2
2023/01/02 00:00:55;;;;;;;11.13;5.47;;;;;;;11.01;100.00;100817.88;5245618;28;20037;-69
2023/01/02 00:03:26;;;;;;;13.52;6.25;;;;;;;10.99;100.00;100810.94;5246321;28;20033;-69
2023/01/02 00:06:04;;;;;;;11.80;5.47;;;;;;;10.92;100.00;100824.06;5244646;28;20095;-68
2023/01/02 00:08:35;;;;;;;10.10;5.30;;;;;;;10.90;100.00;100830.19;5245576;28;20096;-68
2023/01/02 00:11:07;;;;;;;17.30;6.33;;;;;;;10.89;100.00;100829.31;5245439;28;20108;-69
2023/01/02 00:13:38;;;;;;;12.60;5.77;;;;;;;10.87;100.00;100828.50;5245197;28;20106;-69
2023/01/02 00:16:09;;;;;;;13.67;5.53;;;;;;;10.88;100.00;100818.91;5244638;28;20056;-69
2023/01/02 00:18:41;;;;;;;11.80;6.00;;;;;;;10.89;100.00;100816.28;5244831;28;20092;-69
2023/01/02 00:21:12;;;;;;;17.53;6.50;;;;;;;10.87;100.00;100819.81;5244032;28;20044;-69
2023/01/02 00:23:44;;;;;;;14.63;6.23;;;;;;;10.86;100.00;100810.25;5243756;28;20188;-69
2023/01/02 00:26:15;;;;;;;20.63;6.83;;;;;;;10.86;100.00;100808.50;5242581;28;20088;-70
2023/01/02 00:28:46;;;;;;;16.53;7.03;;;;;;;10.85;100.00;100806.81;5242413;28;20037;-69
2023/01/02 00:31:18;;;;;;;10.07;5.60;;;;;;;10.86;100.00;100807.66;5225394;28;20061;-69
2023/01/02 00:33:49;;;;;;;14.90;7.10;;;;;;;10.84;100.00;100806.81;5242081;28;20374;-69
2023/01/02 00:36:20;;;;;;;12.33;6.67;;;;;;;10.85;100.00;100803.31;5242267;28;20088;-70
2023/01/02 00:38:55;;;;;;;11.90;6.27;;;;;;;10.87;100.00;100788.53;5242094;28;20116;-69
2023/01/02 00:41:27;;;;;;;11.48;5.53;;;;;;;10.88;100.00;100787.63;5241935;28;20042;-69
2023/01/02 00:43:58;;;;;;;13.50;6.67;;;;;;;10.91;100.00;100790.19;5241735;28;20389;-69
2023/01/02 00:46:29;;;;;;;15.20;6.37;;;;;;;10.97;100.00;100791.88;5242936;28;20100;-70
2023/01/02 00:49:01;;;;;;;13.00;5.77;;;;;;;11.01;100.00;100791.81;5245774;28;20500;-69
2023/01/02 00:51:32;;;;;;;15.00;5.87;;;;;;;11.05;100.00;100790.84;5246367;28;20033;-70
2023/01/02 00:54:04;;;;;;;10.73;6.07;;;;;;;11.12;100.00;100791.63;5246209;28;20087;-70
2023/01/02 00:56:35;;;;;;;13.87;5.63;;;;;;;11.17;100.00;100788.94;5245675;28;20412;-69
2023/01/02 00:59:06;;;;;;;11.63;6.10;;;;;;;11.18;100.00;100786.31;5245437;28;20333;-70
2023/01/02 01:01:38;;;;;;;11.77;6.53;;;;;;;11.22;100.00;100779.28;5245806;28;20121;-70
2023/01/02 01:04:09;;;;;;;12.93;4.93;;;;;;;11.25;100.00;100782.75;5245570;28;20039;-69
2023/01/02 01:06:41;;;;;;;14.90;5.13;;;;;;;11.31;100.00;100777.41;5245386;28;20037;-70
2023/01/02 01:09:12;;;;;;;11.47;5.30;;;;;;;11.37;100.00;100778.22;5244887;28;20059;-70
2023/01/02 01:11:44;;;;;;;9.17;4.90;;;;;;;11.42;100.00;100779.00;5243640;28;20063;-70
2023/01/02 01:14:15;;;;;;;12.23;4.80;;;;;;;11.40;100.00;100778.13;5245660;28;20034;-70
2023/01/02 01:16:46;;;;;;;14.23;5.10;;;;;;;11.40;100.00;100776.41;5244837;28;20033;-70
2023/01/02 01:19:18;;;;;;;14.97;5.70;;;;;;;11.32;100.00;100768.69;5244696;28;20107;-70
2023/01/02 01:21:49;;;;;;;14.77;5.10;;;;;;;11.34;100.00;100771.28;5245046;28;20044;-69
2023/01/02 01:24:20;;;;;;;11.70;4.60;;;;;;;11.32;100.00;100773.91;5244774;28;20122;-70
2023/01/02 01:26:52;;;;;;;11.50;4.83;;;;;;;11.27;100.00;100770.53;5243702;28;20040;-70
2023/01/02 01:29:23;;;;;;;11.57;4.27;;;;;;;11.30;100.00;100769.59;5243928;28;20061;-70
2023/01/02 01:31:54;;;;;;;14.13;5.33;;;;;;;11.31;100.00;100768.72;5244826;28;20036;-70
2023/01/02 01:34:26;;;;;;;11.27;4.70;;;;;;;11.30;100.00;100778.31;5244905;28;20029;-70
2023/01/02 01:36:57;;;;;;;21.87;5.87;;;;;;;11.39;100.00;100773.81;5244597;28;20037;-71
2023/01/02 01:39:29;;;;;;;15.97;5.47;;;;;;;11.38;100.00;100777.31;5245099;28;20384;-70
2023/01/02 01:42:00;;;;;;;9.73;4.53;;;;;;;11.34;100.00;100775.66;5243580;28;20122;-71
2023/01/02 01:44:52;;;;;;;17.77;5.60;;;;;;;11.28;100.00;100779.19;5244279;28;20055;-71
2023/01/02 01:47:52;;;;;;;11.10;5.00;;;;;;;11.24;100.00;100778.41;5244670;28;20084;-70
2023/01/02 01:50:31;;;;;;;14.80;5.65;;;;;;;11.20;100.00;100784.53;5241396;28;20087;-70
2023/01/02 01:53:07;;;;;;;12.15;5.07;;;;;;;11.16;100.00;100787.22;5244543;28;20531;-71
2023/01/02 01:55:50;;;;;;;12.85;5.65;;;;;;;11.16;100.00;100795.03;5243687;28;20036;-70
2023/01/02 01:58:23;;;;;;;;;;;;;;;11.07;100.00;100796.06;5244389;28;20034;-71
2023/01/02 02:00:55;;;;;;;14.50;5.22;;;;;;;11.10;100.00;100796.88;5242990;28;20272;-71
2023/01/02 02:03:29;;;;;;;18.30;5.70;;;;;;;11.10;100.00;100793.41;5242425;28;20029;-71
2023/01/02 02:06:02;;;;;;;13.57;5.25;;;;;;;11.04;100.00;100796.94;5243243;28;20037;-71
2023/01/02 02:08:57;;;;;;;9.98;5.00;;;;;;;11.02;100.00;100795.25;5243756;28;20124;-71
2023/01/02 02:11:29;;;;;;;13.05;6.80;;;;;;;11.01;100.00;100799.63;5242496;28;20074;-71
2023/01/02 02:14:00;;;;;;;15.25;5.70;;;;;;;11.01;100.00;100794.41;5225903;28;20029;-71
2023/01/02 02:17:02;;;;;;;11.53;5.47;;;;;;;10.99;100.00;100796.16;5243613;28;20464;-72
2023/01/02 02:19:39;;;;;;;15.68;6.22;;;;;;;11.00;100.00;100786.59;5244042;28;20065;-71
2023/01/02 02:22:20;;;;;;;15.25;5.70;;;;;;;10.99;100.00;100793.53;5244424;28;20029;-71
2023/01/02 02:25:22;;;;;;;14.45;5.47;;;;;;;11.00;100.00;100790.06;5242379;28;20037;-71
2023/01/02 02:28:24;;;;;;;13.10;5.70;;;;;;;11.00;100.00;100797.03;5243360;28;20034;-71
2023/01/02 02:30:59;;;;;;;16.17;5.10;;;;;;;11.05;100.00;100801.28;5243908;28;20021;-71
2023/01/02 02:33:46;;;;;;;13.20;5.75;;;;;;;11.03;100.00;100799.56;5243427;28;20108;-70
2023/01/02 02:36:26;;;;;;;11.98;4.38;;;;;;;11.02;100.00;100788.28;5243409;28;20091;-71
2023/01/02 02:39:23;;;;;;;10.95;5.03;;;;;;;11.04;100.00;100798.69;5243583;28;20025;-71
2023/01/02 02:41:58;;;;;;;11.93;5.18;;;;;;;11.08;100.00;100796.03;5241772;28;20049;-71
2023/01/02 02:45:01;;;;;;;22.75;7.10;;;;;;;11.05;100.00;100805.66;5243465;28;20033;-71
2023/01/02 02:47:41;;;;;;;17.80;5.00;;;;;;;11.06;100.00;100792.59;5242862;28;20021;-70
2023/01/02 02:50:50;;;;;;;9.60;4.63;;;;;;;11.07;100.00;100798.66;5243409;28;20033;-71
2023/01/02 02:53:41;;;;;;;14.82;5.28;;;;;;;11.05;100.00;100800.44;5179381;28;20070;-70
2023/01/02 02:56:15;;;;;;;14.50;5.60;;;;;;;11.05;100.00;100800.44;5240551;28;20045;-70
2023/01/02 02:58:47;;;;;;;14.40;5.97;;;;;;;11.05;100.00;100796.06;5242690;28;20033;-70
2023/01/02 03:01:18;;;;;;;10.50;4.50;;;;;;;11.05;100.00;100795.22;5242817;28;20435;-70
2023/01/02 03:03:50;;;;;;;12.00;4.07;;;;;;;11.05;100.00;100800.44;5242948;28;20457;-70
2023/01/02 03:06:51;;;;;;;17.80;5.93;;;;;;;11.04;100.00;100793.47;5241466;28;20025;-70
2023/01/02 03:09:37;;;;;;;14.43;5.30;;;;;;;11.03;100.00;100790.03;5212683;28;20045;-70
2023/01/02 03:12:22;;;;;;;10.98;4.70;;;;;;;11.01;100.00;100794.41;5245932;28;20034;-71
2023/01/02 03:15:11;;;;;;;13.95;5.72;;;;;;;11.04;100.00;100793.47;5249159;28;20306;-71
2023/01/02 03:18:01;;;;;;;13.85;5.30;;;;;;;10.99;100.00;100783.13;5248582;28;20036;-70
2023/01/02 03:20:38;;;;;;;16.02;5.53;;;;;;;11.00;100.00;100779.63;5248743;28;20128;-70
2023/01/02 03:23:15;;;;;;;14.95;6.25;;;;;;;10.97;100.00;100797.06;5247945;28;20445;-71
2023/01/02 03:25:47;;;;;;;13.25;5.65;;;;;;;10.99;100.00;100779.66;5247779;28;20029;-70
2023/01/02 03:28:23;;;;;;;17.60;5.53;;;;;;;10.97;100.00;100771.00;5247705;28;20029;-69
2023/01/02 03:30:59;;;;;;;11.98;5.13;;;;;;;10.94;100.00;100774.50;5247945;28;20107;-69
2023/01/02 03:33:37;;;;;;;12.70;5.60;;;;;;;10.95;100.00;100779.69;5247751;28;20032;-70
2023/01/02 03:36:16;;;;;;;13.85;4.82;;;;;;;10.94;100.00;100779.72;5247700;28;20033;-70
2023/01/02 03:39:18;;;;;;;13.35;5.20;;;;;;;10.90;100.00;100797.16;5247451;28;20052;-70
2023/01/02 03:41:56;;;;;;;14.98;4.63;;;;;;;10.98;100.00;100785.75;5245807;28;20044;-71
2023/01/02 03:44:39;;;;;;;10.77;4.75;;;;;;;10.97;100.00;100807.50;5245860;28;20036;-69
2023/01/02 03:47:29;;;;;;;13.40;4.82;;;;;;;10.95;100.00;100799.72;5245501;28;20154;-71
2023/01/02 03:50:07;;;;;;;13.30;5.03;;;;;;;10.98;100.00;100806.59;5243335;28;20476;-70
2023/01/02 03:52:38;;;;;;;11.95;6.13;;;;;;;10.94;100.00;100804.03;5242990;28;20469;-70
2023/01/02 03:55:10;;;;;;;17.10;5.37;;;;;;;10.92;100.00;100808.44;5242594;28;20040;-71
2023/01/02 03:58:13;;;;;;;13.43;4.90;;;;;;;10.97;100.00;100810.13;5242618;28;20036;-70
2023/01/02 04:00:56;;;;;;;10.20;5.10;;;;;;;10.95;100.00;100805.78;5242655;28;20030;-70
2023/01/02 04:03:54;;;;;;;12.30;5.13;;;;;;;10.99;100.00;100811.81;5242474;28;20037;-70
2023/01/02 04:06:35;;;;;;;11.30;5.07;;;;;;;11.01;100.00;100817.00;5242256;28;20479;-69
2023/01/02 04:09:11;;;;;;;9.85;4.35;;;;;;;11.01;100.00;100819.63;5242397;28;20087;-70
2023/01/02 04:11:46;;;;;;;14.75;5.00;;;;;;;11.02;100.00;100826.56;5242257;28;20104;-71
2023/01/02 04:14:33;;;;;;;12.40;5.30;;;;;;;10.99;100.00;100817.03;5241930;28;20408;-70
2023/01/02 04:17:09;;;;;;;10.45;5.18;;;;;;;10.99;100.00;100813.56;5241958;28;20036;-70
2023/01/02 04:19:48;;;;;;;17.48;6.22;;;;;;;10.96;100.00;100822.28;5241583;28;20159;-70
2023/01/02 04:22:25;;;;;;;15.10;5.38;;;;;;;10.94;100.00;100824.06;5241464;28;20056;-71
2023/01/02 04:25:17;;;;;;;16.17;4.70;;;;;;;10.91;100.00;100824.09;5241901;28;20040;-70
2023/01/02 04:28:12;;;;;;;10.57;5.07;;;;;;;10.89;100.00;100829.31;5241842;28;20108;-71
2023/01/02 04:30:48;;;;;;;14.07;5.75;;;;;;;10.92;100.00;100836.25;5241986;28;20017;-71
2023/01/02 04:33:21;;;;;;;13.25;5.75;;;;;;;10.92;100.00;100826.69;5242015;28;20405;-72
2023/01/02 04:35:53;;;;;;;10.95;4.90;;;;;;;10.92;100.00;100828.44;5241261;28;20030;-71
2023/01/02 04:38:24;;;;;;;13.60;5.07;;;;;;;10.90;100.00;100838.88;5241363;28;20083;-71
2023/01/02 04:40:56;;;;;;;16.53;4.97;;;;;;;10.88;100.00;100835.44;5240237;28;20532;-71
2023/01/02 04:43:27;;;;;;;17.90;4.77;;;;;;;10.94;100.00;100837.09;5241853;28;20441;-70
2023/01/02 04:45:58;;;;;;;11.50;4.87;;;;;;;10.92;100.00;100839.72;5239947;28;20425;-71
2023/01/02 04:48:30;;;;;;;10.70;4.87;;;;;;;10.95;100.00;100841.44;5241512;28;20639;-71
2023/01/02 04:51:01;;;;;;;16.63;4.97;;;;;;;10.97;100.00;100842.28;5241381;28;20030;-71
2023/01/02 04:53:32;;;;;;;9.33;4.33;;;;;;;11.01;100.00;100835.25;5241477;28;20036;-71
2023/01/02 04:56:04;;;;;;;12.00;4.67;;;;;;;11.01;100.00;100862.22;5241224;28;20030;-70
2023/01/02 04:58:35;;;;;;;11.63;6.23;;;;;;;11.04;100.00;100853.47;5240419;28;20034;-71
2023/01/02 05:01:12;;;;;;;8.80;4.40;;;;;;;11.04;100.00;100856.09;5241131;28;20033;-71
2023/01/02 05:03:46;;;;;;;14.48;5.03;;;;;;;11.01;100.00;100856.13;5241853;28;20428;-70
2023/01/02 05:06:18;;;;;;;10.25;4.50;;;;;;;11.01;100.00;100863.94;5241615;28;20033;-70
2023/01/02 05:08:49;;;;;;;13.03;4.90;;;;;;;10.99;100.00;100861.38;5240980;28;20026;-71
2023/01/02 05:11:20;;;;;;;17.40;5.20;;;;;;;11.00;100.00;100860.50;5239762;28;20033;-70
2023/01/02 05:13:52;;;;;;;8.87;4.23;;;;;;;11.06;100.00;100860.41;5240810;28;20042;-70
2023/01/02 05:16:23;;;;;;;8.03;4.20;;;;;;;11.06;100.00;100868.25;5239883;28;20075;-70
2023/01/02 05:18:54;;;;;;;8.53;3.77;;;;;;;11.07;100.00;100863.88;5240908;28;20076;-71
2023/01/02 05:24:16;;;;;;;11.05;4.38;;;;;;;11.11;100.00;100876.00;5240979;28;20400;-71
2023/01/02 05:26:47;;;;;;;8.83;4.80;;;;;;;11.18;100.00;100871.56;5241213;28;20033;-71
2023/01/02 05:29:18;;;;;;;9.97;4.10;;;;;;;11.13;100.00;100875.09;5240618;28;20025;-69
2023/01/02 05:31:50;;;;;;;10.03;3.50;;;;;;;11.12;100.00;100875.09;5240565;28;20040;-70
2023/01/02 05:34:21;;;;;;;8.50;3.77;;;;;;;11.20;100.00;100877.63;5244730;28;20076;-70
2023/01/02 05:36:53;;;;;;;11.17;3.70;;;;;;;11.17;100.00;100885.47;5244740;28;20080;-69
2023/01/02 05:39:24;;;;;;;10.33;3.77;;;;;;;11.21;100.00;100885.44;5244355;28;20033;-70
2023/01/02 05:41:55;;;;;;;7.33;3.57;;;;;;;11.22;100.00;100888.88;5244515;28;20034;-70
2023/01/02 05:44:27;;;;;;;6.23;3.00;;;;;;;11.24;100.00;100898.44;5244309;28;20495;-70
2023/01/02 05:46:58;;;;;;;8.57;3.10;;;;;;;11.31;100.00;100907.88;5244401;28;20114;-70
2023/01/02 05:49:30;;;;;;;7.37;3.30;;;;;;;11.36;100.00;100905.22;5244025;28;20033;-69
2023/01/02 05:52:01;;;;;;;9.27;4.00;;;;;;;11.36;100.00;100920.03;5244041;28;20035;-70
2023/01/02 05:54:32;;;;;;;10.80;3.63;;;;;;;11.32;100.00;100917.44;5244271;28;20069;-70
2023/01/02 05:57:04;;;;;;;10.57;3.60;;;;;;;11.36;100.00;100920.03;5243964;28;20037;-70
2023/01/02 05:59:35;;;;;;;8.63;2.97;;;;;;;11.36;100.00;100917.41;5244167;28;20041;-70
2023/01/02 06:02:06;;;;;;;6.70;3.47;;;;;;;11.36;100.00;100920.88;5244275;28;20030;-70
2023/01/02 06:04:38;;;;;;;5.20;2.93;;;;;;;11.36;100.00;100913.03;5243651;28;20061;-70
2023/01/02 06:07:09;;;;;;;8.27;3.47;;;;;;;11.23;100.00;100922.78;5242879;28;20033;-70
2023/01/02 06:09:40;;;;;;;9.90;2.87;;;;;;;11.12;100.00;100928.16;5242284;28;20029;-70
2023/01/02 06:12:12;;;;;;;9.77;3.93;;;;;;;11.06;100.00;100936.06;5243508;28;20033;-72
2023/01/02 06:14:43;;;;;;;8.43;4.10;;;;;;;10.97;100.00;100938.78;5243435;28;20037;-72
2023/01/02 06:17:14;;;;;;;8.17;3.73;;;;;;;10.88;100.00;100937.16;5243457;28;20034;-73
2023/01/02 06:19:46;;;;;;;23.47;5.67;;;;;;;10.83;100.00;100949.34;5243944;28;20057;-74
2023/01/02 06:22:17;;;;;;;25.47;5.73;;;;;;;10.77;100.00;100954.66;5244114;28;20039;-79
2023/01/02 06:24:49;;;;;;;11.53;4.47;;;;;;;10.72;100.00;100966.88;5244126;28;20041;-80
2023/01/02 06:27:20;;;;;;;9.37;3.93;;;;;;;10.68;100.00;100975.63;5243681;28;20037;-77
2023/01/02 06:29:52;;;;;;;11.03;4.57;;;;;;;10.54;100.00;100996.59;5243678;28;20040;-76
2023/01/02 06:32:23;;;;;;;7.27;4.40;;;;;;;10.32;100.00;101004.63;5244179;28;20468;-76
2023/01/02 06:34:54;;;;;;;6.83;3.50;;;;;;;10.09;100.00;101009.94;5259203;28;20025;-75
2023/01/02 06:37:26;;;;;;;3.80;2.83;;;;;;;9.80;100.00;101024.00;5260027;28;20033;-76
2023/01/02 06:39:57;;;;;;;2.70;2.30;;;;;;;9.61;100.00;101022.38;5253010;28;20451;-75
2023/01/02 06:42:28;;;;;;;4.70;2.23;;;;;;;9.49;100.00;101026.78;5252443;28;20095;-75
2023/01/02 06:45:00;;;;;;;5.40;2.40;;;;;;;9.38;100.00;101030.31;5248399;28;20030;-75
2023/01/02 06:47:31;;;;;;;4.33;2.37;;;;;;;9.29;100.00;101036.44;5243853;28;20030;-74
2023/01/02 06:50:03;;;;;;;2.47;1.60;;;;;;;9.22;100.00;101058.09;5248583;28;20034;-74
2023/01/02 06:52:34;;;;;;;2.10;1.40;;;;;;;9.12;100.00;101062.47;5244069;28;20033;-75
2023/01/02 06:55:06;;;;;;;1.63;1.50;;;;;;;9.04;100.00;101072.03;5243431;28;20181;-74
2023/01/02 06:57:37;;;;;;;3.07;1.30;;;;;;;8.92;100.00;101071.19;5243224;28;20057;-75
2023/01/02 07:00:10;;;;;;;1.30;1.20;;;;;;;8.85;100.00;101072.03;5243502;28;20033;-74
2023/01/02 07:02:41;;;;;;;2.35;1.17;;;;;;;8.83;100.00;101085.91;5243282;28;20458;-74
2023/01/02 07:05:12;;;;;;;2.07;1.23;;;;;;;8.78;100.00;101098.91;5243626;28;20116;-74
2023/01/02 07:07:44;;;;;;;1.40;1.30;;;;;;;8.73;100.00;101101.50;5243758;28;20092;-75
2023/01/02 07:10:15;;;;;;;2.23;1.70;;;;;;;8.69;100.00;101111.91;5243446;28;20140;-74
2023/01/02 07:12:46;;;;;;;3.37;1.80;;;;;;;8.68;100.00;101115.38;5242918;28;20034;-74
2023/01/02 07:15:18;;;;;;;2.80;2.30;;;;;;;8.63;100.00;101130.97;5243455;28;20117;-73
2023/01/02 07:17:49;;;;;;;3.27;2.30;;;;;;;8.61;100.00;101124.88;5241668;28;20037;-73
2023/01/02 07:20:21;;;;;;;2.73;2.20;;;;;;;8.58;100.00;101132.69;5241608;28;20080;-73
2023/01/02 07:22:53;;;;;;;3.60;2.37;;;;;;;8.58;100.00;101149.16;5242857;28;20030;-73
2023/01/02 07:25:24;;;;;;;3.45;2.55;;;;;;;8.56;100.00;101153.50;5241719;28;20121;-73
2023/01/02 07:27:58;;;;;;;3.40;2.67;;;;;;;8.53;100.00;101161.28;5242979;28;20120;-72
2023/01/02 07:30:29;;;;;;;4.43;3.65;;;;;;;8.52;100.00;101169.06;5242991;28;20021;-73
2023/01/02 07:33:01;;;;;;;4.27;3.17;;;;;;;8.51;100.00;101170.78;5243445;28;20411;-73
2023/01/02 07:35:32;;;;;;;4.70;3.50;;;;;;;8.50;100.00;101179.47;5242628;28;20033;-73
2023/01/02 07:38:03;;;;;;;4.57;3.53;;;;;;;8.50;100.00;101173.38;5242980;28;20199;-73
2023/01/02 07:40:35;;;;;;;5.57;4.03;;;;;;;8.49;100.00;101182.06;5243266;28;20064;-73
2023/01/02 07:43:06;;;;;;;5.20;4.57;;;;;;;8.47;100.00;101184.66;5243260;28;20029;-73
2023/01/02 07:45:38;;;;;;;5.93;4.93;;;;;;;8.51;100.00;101191.56;5243003;28;20029;-73
2023/01/02 07:48:09;;;;;;;6.70;5.40;;;;;;;8.46;100.00;101192.44;5242869;28;20069;-73
2023/01/02 07:50:40;;;;;;;7.63;6.00;;;;;;;8.46;100.00;101202.84;5242252;28;20080;-73
2023/01/02 07:53:12;;;;;;;7.17;6.37;;;;;;;8.47;100.00;101214.94;5242257;28;20064;-73
2023/01/02 07:55:52;;;;;;;8.23;6.80;;;;;;;8.48;100.00;101227.94;5241902;28;20033;-73
2023/01/02 07:58:24;;;;;;;7.60;6.65;;;;;;;8.48;100.00;101221.88;5242188;28;20037;-73
2023/01/02 08:00:56;;;;;;;10.68;7.95;;;;;;;8.44;100.00;101228.81;5242534;28;20389;-72
2023/01/02 08:03:27;;;;;;;11.55;8.52;;;;;;;8.45;100.00;101238.31;5242428;28;20045;-72
2023/01/02 08:06:07;;;;;;;11.57;10.43;;;;;;;8.40;100.00;101250.41;5241992;28;20086;-73
2023/01/02 08:08:39;;;;;;;11.38;10.15;;;;;;;8.39;100.00;101254.72;5242165;28;20029;-73
2023/01/02 08:11:13;;;;;;;21.30;10.77;;;;;;;8.34;100.00;101264.25;5242254;28;20487;-74
2023/01/02 08:13:45;;;;;;;12.07;10.73;;;;;;;8.35;100.00;101273.75;5242115;28;20032;-73
2023/01/02 08:16:19;;;;;;;10.97;9.83;;;;;;;8.29;100.00;101291.03;5242728;28;20418;-73
2023/01/02 08:18:56;;;;;;;11.50;10.10;;;;;;;8.27;100.00;101291.03;5241909;28;20551;-73
2023/01/02 08:21:27;;;;;;;11.07;9.10;;;;;;;8.21;100.00;101273.72;5242255;28;20082;-73
2023/01/02 08:23:59;;;;;;;11.67;9.43;;;;;;;8.18;100.00;101291.00;5242144;28;20029;-73
2023/01/02 08:26:30;;;;;;;12.23;9.37;;;;;;;8.15;100.00;101291.00;5241905;28;20033;-74
2023/01/02 08:29:02;;;;;;;10.43;8.57;;;;;;;8.17;100.00;101295.31;5240547;28;20123;-74
2023/01/02 08:31:34;;;;;;;9.60;8.60;;;;;;;8.15;100.00;101296.19;5242348;28;20524;-73
2023/01/02 08:34:05;;;;;;;10.07;9.05;;;;;;;8.10;100.00;101298.75;5242487;28;20034;-74
2023/01/02 08:36:36;;;;;;;10.03;9.03;;;;;;;8.10;100.00;101303.94;5240531;28;20041;-74
2023/01/02 08:39:08;;;;;;;10.47;8.73;;;;;;;8.07;100.00;101309.13;5240523;28;20120;-74
2023/01/02 08:41:40;;;;;;;10.20;9.17;;;;;;;8.08;100.00;101309.97;5242313;28;20037;-74
2023/01/02 08:44:11;;;;;;;10.73;8.60;;;;;;;8.04;100.00;101320.34;5241811;28;20041;-75
2023/01/02 08:46:43;;;;;;;11.70;8.27;;;;;;;8.09;100.00;101333.38;5242238;28;20030;-73
2023/01/02 08:49:14;;;;;;;10.73;8.77;;;;;;;8.06;100.00;101327.28;5242166;28;20061;-74
2023/01/02 08:51:46;;;;;;;11.50;8.60;;;;;;;8.06;100.00;101333.34;5241683;28;20484;-74
2023/01/02 08:54:17;;;;;;;10.47;8.17;;;;;;;8.06;100.00;101337.66;5242282;28;20423;-73
2023/01/02 08:56:49;;;;;;;9.77;8.07;;;;;;;8.14;100.00;101349.84;5241491;28;20025;-73
2023/01/02 08:59:23;;;;;;;8.47;7.67;;;;;;;8.12;100.00;101345.50;5241737;28;20033;-73
2023/01/02 09:01:54;;;;;;;12.85;8.43;;;;;;;8.07;100.00;101349.81;5241606;28;20424;-73
2023/01/02 09:04:26;;;;;;;7.80;6.90;;;;;;;8.09;100.00;101350.69;5242209;28;20075;-75
2023/01/02 09:06:57;;;;;;;10.97;7.70;;;;;;;8.10;100.00;101348.09;5241559;28;20102;-73
2023/01/02 09:09:30;;;;;;;;;;;;;;;8.11;100.00;101356.75;5245859;28;20049;-74
2023/01/02 09:12:01;;;;;;;11.10;6.93;;;;;;;8.11;100.00;101361.94;5244173;28;19936;-74
2023/01/02 09:14:33;;;;;;;7.67;6.80;;;;;;;8.10;100.00;101360.19;5245012;28;20052;-73
2023/01/02 09:17:04;;;;;;;12.73;6.00;;;;;;;8.11;100.00;101385.31;5245761;28;20528;-74
2023/01/02 09:19:36;;;;;;;6.43;5.53;;;;;;;8.12;100.00;101379.25;5245330;28;20085;-73
2023/01/02 09:22:08;;;;;;;7.13;5.03;;;;;;;8.09;100.00;101390.50;5243618;28;20045;-73
2023/01/02 09:24:40;;;;;;;7.22;5.00;;;;;;;8.12;100.00;101406.09;5245005;28;20167;-72
2023/01/02 09:27:12;;;;;;;7.05;5.50;;;;;;;8.12;100.00;101410.44;5245292;28;20029;-73
2023/01/02 09:29:43;;;;;;;8.10;5.17;;;;;;;8.16;100.00;101414.78;5244941;28;20033;-73
2023/01/02 09:32:15;;;;;;;7.03;5.20;;;;;;;8.21;100.00;101411.38;5245139;28;20120;-73
2023/01/02 09:34:49;;;;;;;7.83;4.90;;;;;;;8.20;100.00;101411.34;5245265;28;20033;-73
2023/01/02 09:37:20;;;;;;;10.05;4.70;;;;;;;8.20;100.00;101426.94;5245181;28;20029;-74
2023/01/02 09:39:52;;;;;;;5.83;4.23;;;;;;;8.21;100.00;101420.84;5245323;28;20095;-73
2023/01/02 09:42:23;;;;;;;8.37;4.90;;;;;;;8.24;100.00;101425.22;5243590;28;20029;-73
2023/01/02 09:44:59;;;;;;;6.73;4.80;;;;;;;8.25;100.00;101430.44;5243878;28;20069;-73
2023/01/02 09:47:31;;;;;;;7.90;4.07;;;;;;;8.29;100.00;101428.72;5244388;28;20372;-73
2023/01/02 09:50:06;;;;;;;6.80;4.17;;;;;;;8.32;100.00;101440.03;5245026;28;20026;-73
2023/01/02 09:52:42;;;;;;;7.00;4.32;;;;;;;8.38;100.00;101440.03;5245521;28;20029;-73
2023/01/02 09:55:45;;;;;;;9.18;5.32;;;;;;;8.39;100.00;101444.38;5246220;28;20029;-74
2023/01/02 09:58:16;;;;;;;;;;;;;;;8.40;100.00;101434.84;5232128;28;20146;-74
2023/01/02 10:00:49;;;;;;;8.38;5.07;;;;;;;8.38;100.00;101440.03;5254106;28;20324;-74
2023/01/02 10:04:03;;;;;;;6.65;4.82;;;;;;;8.37;100.00;101440.03;5251869;28;20049;-74
2023/01/02 10:06:59;;;;;;;7.50;4.53;;;;;;;8.34;100.00;101438.28;5251542;28;20085;-74
2023/01/02 10:09:48;;;;;;;8.70;4.80;;;;;;;8.35;100.00;101454.75;5250794;28;20099;-74
2023/01/02 10:12:46;;;;;;;6.47;5.30;;;;;;;8.40;100.00;101464.31;5250348;28;20029;-73
2023/01/02 10:15:24;;;;;;;6.00;5.05;;;;;;;8.44;100.00;101457.44;5249954;28;20448;-73
2023/01/02 10:18:13;;;;;;;6.45;4.85;;;;;;;8.46;100.00;101465.25;5249227;28;20034;-74
2023/01/02 10:20:52;;;;;;;10.13;5.93;;;;;;;8.52;100.00;101463.56;5249204;28;20044;-73
2023/01/02 10:23:34;;;;;;;6.90;5.40;;;;;;;8.51;100.00;101455.75;5249417;28;20119;-72
2023/01/02 10:26:12;;;;;;;9.95;5.90;;;;;;;8.62;100.00;101448.88;5248761;28;20041;-73
2023/01/02 10:29:01;;;;;;;9.32;5.65;;;;;;;8.61;100.00;101451.47;5248244;28;20034;-72
2023/01/02 10:31:43;;;;;;;7.22;4.95;;;;;;;8.73;100.00;101459.34;5248351;28;20032;-73
2023/01/02 10:34:18;;;;;;;7.03;5.22;;;;;;;8.71;100.00;101464.53;5246424;28;20040;-73
2023/01/02 10:36:49;;;;;;;8.52;5.68;;;;;;;8.73;100.00;101481.00;5245147;28;20025;-74
2023/01/02 10:39:24;;;;;;;9.00;5.73;;;;;;;8.74;100.00;101479.28;5244569;28;20400;-73
2023/01/02 10:41:58;;;;;;;8.27;5.80;;;;;;;8.72;100.00;101475.81;5244373;28;20025;-74
2023/01/02 10:44:39;;;;;;;8.05;6.00;;;;;;;8.70;100.00;101474.94;5244796;28;20354;-74
2023/01/02 10:47:21;;;;;;;8.98;6.78;;;;;;;8.68;100.00;101468.88;5244303;28;20107;-74
2023/01/02 10:49:53;;;;;;;10.38;6.68;;;;;;;8.67;100.00;101469.72;5244124;28;20041;-73
2023/01/02 10:52:36;;;;;;;10.77;7.20;;;;;;;8.64;100.00;101490.47;5244027;28;20033;-73
2023/01/02 10:55:09;;;;;;;9.20;7.13;;;;;;;8.62;100.00;101471.41;5244579;28;20033;-73
2023/01/02 10:57:50;;;;;;;10.50;7.53;;;;;;;8.63;100.00;101471.44;5244157;28;20112;-73
2023/01/02 11:00:29;;;;;;;10.43;7.68;;;;;;;8.69;100.00;101487.03;5243396;28;20036;-73
2023/01/02 11:03:19;;;;;;;13.05;8.50;;;;;;;8.71;100.00;101489.66;5244327;28;20066;-72
2023/01/02 11:05:56;;;;;;;11.68;8.13;;;;;;;8.80;100.00;101494.03;5244330;28;20026;-73
2023/01/02 11:08:37;;;;;;;10.73;8.25;;;;;;;8.88;100.00;101488.00;5243674;28;20034;-74
2023/01/02 11:11:16;;;;;;;10.52;8.52;;;;;;;9.02;100.00;101495.91;5242048;28;20033;-73
2023/01/02 11:13:50;;;;;;;10.50;8.93;;;;;;;9.08;100.00;101495.94;5242559;28;20042;-74
2023/01/02 11:16:25;;;;;;;10.52;9.05;;;;;;;8.93;100.00;101504.53;5242837;28;20025;-73
2023/01/02 11:18:58;;;;;;;11.02;8.73;;;;;;;8.98;100.00;101503.69;5243074;28;20158;-73
2023/01/02 11:21:40;;;;;;;11.55;8.70;;;;;;;8.95;100.00;101509.72;5242946;28;20059;-73
2023/01/02 11:24:18;;;;;;;11.07;8.43;;;;;;;8.90;100.00;101511.44;5244031;28;20026;-72
2023/01/02 11:26:49;;;;;;;10.02;8.98;;;;;;;8.86;100.00;101509.69;5243535;28;20129;-73
2023/01/02 11:29:31;;;;;;;11.80;9.00;;;;;;;8.88;100.00;101508.81;5243897;28;20120;-72
2023/01/02 11:32:03;;;;;;;12.05;9.07;;;;;;;8.92;100.00;101520.13;5242361;28;20026;-73
2023/01/02 11:34:39;;;;;;;10.80;9.05;;;;;;;8.95;100.00;101520.13;5243390;28;20025;-73
2023/01/02 11:37:10;;;;;;;15.32;10.23;;;;;;;8.99;100.00;101510.63;5243192;28;20101;-73
2023/01/02 11:40:05;;;;;;;14.53;11.23;;;;;;;9.03;100.00;101509.75;5242827;28;20459;-73
2023/01/02 11:45:37;;;;;;;12.27;10.10;;;;;;;9.07;100.00;101514.13;5243414;28;20121;-74
2023/01/02 11:48:14;;;;;;;13.73;10.57;;;;;;;9.02;100.00;101513.25;5242794;28;20514;-73
2023/01/02 11:50:47;;;;;;;14.60;11.55;;;;;;;8.92;100.00;101515.78;5243088;28;20043;-73
2023/01/02 11:53:33;;;;;;;15.32;11.55;;;;;;;8.88;100.00;101519.22;5241036;28;20045;-72
2023/01/02 11:56:12;;;;;;;13.43;11.70;;;;;;;8.92;100.00;101527.94;5243048;28;20132;-73
2023/01/02 11:59:20;;;;;;;13.07;11.27;;;;;;;8.87;100.00;101534.81;5243169;28;20412;-71
2023/01/02 12:01:59;;;;;;;14.50;11.38;;;;;;;8.78;100.00;101527.84;5242064;28;20404;-73